createdAt,value
2023-04-30T00:01:14.633Z,17.08
2023-04-30T00:03:42.201Z,14.35
2023-04-30T00:06:09.449Z,15.23
2023-04-30T00:08:36.445Z,14.00
2023-04-30T00:11:05.009Z,16.70
2023-04-30T00:13:31.807Z,15.02
2023-04-30T00:16:01.278Z,15.35
2023-04-30T00:18:28.121Z,18.40
2023-04-30T00:20:55.086Z,15.73
2023-04-30T00:23:21.973Z,16.40
2023-04-30T00:25:48.742Z,21.00
2023-04-30T00:28:15.684Z,22.40
2023-04-30T00:30:42.509Z,15.77
2023-04-30T00:33:09.579Z,15.00
2023-04-30T00:35:36.770Z,16.67
2023-04-30T00:38:03.537Z,17.52
2023-04-30T00:40:30.609Z,19.95
2023-04-30T00:42:57.516Z,15.15
2023-04-30T00:45:25.102Z,22.17
2023-04-30T00:47:52.031Z,19.48
2023-04-30T00:50:18.859Z,15.02
2023-04-30T00:52:46.173Z,19.92
2023-04-30T00:55:13.244Z,14.95
2023-04-30T00:57:41.766Z,22.10
2023-04-30T01:00:11.163Z,14.68
2023-04-30T01:02:38.476Z,22.50
2023-04-30T01:05:06.368Z,19.33
2023-04-30T01:07:35.374Z,26.23
2023-04-30T01:10:02.562Z,15.55
2023-04-30T01:13:08.211Z,16.73
2023-04-30T01:16:08.465Z,16.85
2023-04-30T01:18:49.272Z,17.63
2023-04-30T01:21:20.477Z,15.07
2023-04-30T01:24:08.576Z,20.13
2023-04-30T01:27:01.687Z,14.60
2023-04-30T01:29:30.456Z,11.52
2023-04-30T01:31:57.236Z,15.45
2023-04-30T01:34:24.095Z,15.93
2023-04-30T01:37:01.923Z,21.80
2023-04-30T01:40:02.256Z,15.27
2023-04-30T01:42:36.993Z,13.30
2023-04-30T01:45:25.114Z,15.80
2023-04-30T01:48:18.970Z,15.07
2023-04-30T01:51:09.542Z,17.17
2023-04-30T01:53:44.341Z,15.45
2023-04-30T01:56:18.417Z,16.75
2023-04-30T01:58:48.963Z,15.68
2023-04-30T02:01:32.913Z,14.80
2023-04-30T02:04:00.536Z,15.98
2023-04-30T02:06:28.818Z,19.17
2023-04-30T02:08:59.458Z,18.42
2023-04-30T02:11:26.329Z,19.37
2023-04-30T02:13:53.078Z,15.25
2023-04-30T02:16:19.973Z,17.83
2023-04-30T02:18:46.865Z,16.70
2023-04-30T02:21:14.418Z,17.85
2023-04-30T02:23:41.979Z,16.55
2023-04-30T02:26:09.252Z,16.02
2023-04-30T02:28:36.854Z,13.57
2023-04-30T02:31:03.712Z,15.10
2023-04-30T02:33:30.720Z,16.20
2023-04-30T02:36:02.984Z,14.80
2023-04-30T02:38:29.852Z,14.73
2023-04-30T02:40:56.752Z,17.17
2023-04-30T02:43:25.821Z,17.83
2023-04-30T02:45:52.827Z,17.25
2023-04-30T02:48:19.727Z,20.70
2023-04-30T02:50:46.632Z,15.57
2023-04-30T02:53:13.500Z,21.00
2023-04-30T02:55:41.767Z,16.77
2023-04-30T02:58:08.579Z,15.30
2023-04-30T03:00:35.898Z,20.98
2023-04-30T03:03:02.896Z,18.35
2023-04-30T03:05:30.796Z,17.13
2023-04-30T03:07:57.754Z,17.00
2023-04-30T03:10:24.492Z,16.27
2023-04-30T03:12:51.606Z,15.73
2023-04-30T03:15:18.574Z,18.42
2023-04-30T03:17:46.340Z,12.25
2023-04-30T03:20:14.127Z,17.35
2023-04-30T03:22:42.195Z,15.65
2023-04-30T03:25:11.049Z,18.15
2023-04-30T03:27:37.959Z,18.45
2023-04-30T03:30:06.770Z,17.30
2023-04-30T03:32:33.676Z,18.23
2023-04-30T03:35:00.697Z,18.63
2023-04-30T03:37:27.691Z,19.15
2023-04-30T03:39:54.829Z,15.30
2023-04-30T03:42:22.220Z,18.70
2023-04-30T03:44:49.446Z,15.10
2023-04-30T03:47:16.758Z,19.67
2023-04-30T03:49:43.623Z,17.13
2023-04-30T03:52:11.584Z,17.75
2023-04-30T03:54:38.433Z,16.15
2023-04-30T03:57:05.813Z,17.27
2023-04-30T03:59:32.920Z,15.93
2023-04-30T04:02:01.869Z,17.00
2023-04-30T04:04:30.022Z,16.13
2023-04-30T04:06:57.006Z,18.65
2023-04-30T04:09:23.771Z,17.98
2023-04-30T04:11:51.098Z,17.08
2023-04-30T04:14:18.490Z,19.52
2023-04-30T04:16:45.722Z,17.98
2023-04-30T04:19:14.574Z,25.10
2023-04-30T04:21:43.520Z,17.95
2023-04-30T04:24:21.676Z,18.15
2023-04-30T04:26:51.943Z,16.02
2023-04-30T04:29:24.843Z,17.00
2023-04-30T04:31:53.282Z,18.10
2023-04-30T04:34:23.289Z,17.58
2023-04-30T04:36:50.340Z,23.58
2023-04-30T04:39:18.509Z,15.85
2023-04-30T04:41:45.473Z,17.80
2023-04-30T04:44:13.518Z,18.08
2023-04-30T04:46:42.441Z,14.35
2023-04-30T04:49:09.710Z,17.25
2023-04-30T04:51:37.024Z,16.50
2023-04-30T04:54:03.888Z,20.42
2023-04-30T04:56:30.806Z,18.33
2023-04-30T04:58:58.507Z,17.70
2023-04-30T05:01:26.154Z,19.23
2023-04-30T05:03:54.513Z,16.42
2023-04-30T05:06:23.895Z,21.75
2023-04-30T05:08:52.086Z,16.42
2023-04-30T05:11:18.932Z,19.38
2023-04-30T05:13:46.120Z,15.30
2023-04-30T05:16:12.984Z,18.05
2023-04-30T05:18:39.869Z,18.85
2023-04-30T05:21:06.773Z,16.42
2023-04-30T05:23:33.525Z,17.30
2023-04-30T05:26:00.702Z,19.08
2023-04-30T05:28:29.591Z,14.18
2023-04-30T05:30:56.507Z,14.15
2023-04-30T05:33:23.411Z,16.02
2023-04-30T05:35:50.524Z,15.00
2023-04-30T05:38:17.913Z,15.52
2023-04-30T05:40:44.663Z,23.48
2023-04-30T05:43:11.817Z,15.35
2023-04-30T05:45:38.987Z,12.63
2023-04-30T05:48:05.947Z,14.93
2023-04-30T05:50:34.078Z,12.70
2023-04-30T05:53:01.173Z,13.65
2023-04-30T05:55:28.210Z,18.10
2023-04-30T05:57:56.324Z,13.73
2023-04-30T06:00:26.953Z,19.42
2023-04-30T06:02:54.050Z,13.57
2023-04-30T06:05:20.998Z,11.88
2023-04-30T06:07:49.020Z,11.55
2023-04-30T06:10:17.063Z,11.80
2023-04-30T06:12:43.820Z,8.45
2023-04-30T06:15:10.891Z,11.70
2023-04-30T06:17:38.335Z,13.95
2023-04-30T06:20:07.583Z,8.93
2023-04-30T06:22:34.563Z,10.88
2023-04-30T06:25:01.640Z,10.25
2023-04-30T06:27:28.807Z,10.40
2023-04-30T06:29:56.355Z,11.43
2023-04-30T06:32:23.466Z,7.47
2023-04-30T06:34:50.780Z,10.05
2023-04-30T06:37:17.621Z,8.05
2023-04-30T06:39:44.493Z,11.48
2023-04-30T06:42:11.265Z,13.73
2023-04-30T06:44:38.109Z,8.02
2023-04-30T06:47:04.890Z,7.70
2023-04-30T06:49:32.154Z,8.88
2023-04-30T06:51:59.055Z,12.15
2023-04-30T06:54:28.031Z,6.03
2023-04-30T06:56:54.935Z,11.98
2023-04-30T06:59:22.023Z,8.77
2023-04-30T07:01:48.973Z,5.85
2023-04-30T07:04:16.359Z,7.07
2023-04-30T07:06:43.326Z,8.18
2023-04-30T07:09:11.084Z,11.27
2023-04-30T07:11:37.885Z,9.88
2023-04-30T07:14:04.786Z,9.77
2023-04-30T07:16:32.793Z,7.45
2023-04-30T07:19:00.041Z,8.45
2023-04-30T07:21:28.031Z,9.52
2023-04-30T07:23:54.922Z,8.52
2023-04-30T07:26:24.982Z,10.43
2023-04-30T07:28:51.880Z,8.00
2023-04-30T07:31:19.375Z,6.43
2023-04-30T07:33:46.332Z,6.82
2023-04-30T07:36:13.532Z,5.82
2023-04-30T07:38:40.441Z,8.93
2023-04-30T07:41:08.306Z,7.47
2023-04-30T07:43:38.085Z,7.03
2023-04-30T07:46:05.305Z,8.65
2023-04-30T07:48:32.222Z,11.23
2023-04-30T07:50:59.239Z,6.50
2023-04-30T07:53:26.595Z,8.35
2023-04-30T07:55:53.577Z,6.78
2023-04-30T07:58:20.395Z,5.53
2023-04-30T08:00:47.850Z,7.00
2023-04-30T08:03:14.858Z,5.55
2023-04-30T08:05:41.920Z,5.25
2023-04-30T08:08:08.989Z,4.90
2023-04-30T08:10:37.368Z,8.13
2023-04-30T08:13:06.354Z,6.13
2023-04-30T08:15:37.059Z,8.75
2023-04-30T08:18:05.262Z,5.93
2023-04-30T08:20:33.249Z,6.85
2023-04-30T08:23:00.181Z,6.57
2023-04-30T08:25:27.069Z,7.93
2023-04-30T08:27:54.110Z,5.05
2023-04-30T08:30:21.041Z,6.70
2023-04-30T08:32:51.493Z,6.05
2023-04-30T08:35:18.446Z,4.38
2023-04-30T08:37:45.625Z,6.45
2023-04-30T08:40:14.013Z,4.93
2023-04-30T08:42:53.955Z,16.40
2023-04-30T08:45:21.585Z,6.25
2023-04-30T08:47:51.527Z,5.45
2023-04-30T08:50:19.049Z,3.63
2023-04-30T08:52:46.337Z,7.63
2023-04-30T08:55:15.089Z,10.93
2023-04-30T08:57:42.286Z,7.38
2023-04-30T09:00:09.920Z,7.32
2023-04-30T09:02:41.383Z,9.85
2023-04-30T09:05:12.121Z,11.40
2023-04-30T09:08:01.080Z,7.50
2023-04-30T09:10:34.030Z,13.13
2023-04-30T09:13:09.316Z,5.13
2023-04-30T09:18:21.920Z,5.07
2023-04-30T09:21:03.215Z,3.72
2023-04-30T09:23:30.848Z,3.10
2023-04-30T09:25:58.056Z,7.38
2023-04-30T09:28:26.757Z,5.63
2023-04-30T09:30:54.781Z,4.88
2023-04-30T09:33:21.627Z,7.72
2023-04-30T09:35:49.799Z,4.93
2023-04-30T09:38:48.382Z,4.50
2023-04-30T09:41:27.804Z,3.85
2023-04-30T09:43:57.956Z,5.20
2023-04-30T09:46:32.322Z,3.60
2023-04-30T09:49:00.559Z,4.03
2023-04-30T09:51:27.824Z,3.72
2023-04-30T09:53:56.140Z,4.47
2023-04-30T09:56:24.950Z,3.70
2023-04-30T09:58:53.832Z,3.33
2023-04-30T10:01:28.036Z,3.53
2023-04-30T10:03:55.974Z,2.22
2023-04-30T10:06:25.851Z,2.20
2023-04-30T10:08:57.266Z,2.70
2023-04-30T10:11:28.941Z,2.00
2023-04-30T10:14:03.026Z,2.80
2023-04-30T10:16:57.883Z,2.63
2023-04-30T10:19:32.197Z,2.58
2023-04-30T10:22:01.239Z,2.35
2023-04-30T10:24:28.517Z,2.97
2023-04-30T10:26:58.312Z,2.20
2023-04-30T10:29:25.136Z,4.03
2023-04-30T10:31:53.185Z,7.43
2023-04-30T10:34:36.153Z,2.83
2023-04-30T10:37:22.518Z,3.38
2023-04-30T10:39:50.601Z,3.00
2023-04-30T10:42:17.941Z,3.08
2023-04-30T10:44:45.026Z,2.85
2023-04-30T10:47:12.162Z,4.32
2023-04-30T10:49:39.097Z,2.08
2023-04-30T10:52:06.347Z,2.65
2023-04-30T10:54:40.137Z,2.67
2023-04-30T10:57:14.708Z,4.78
2023-04-30T10:59:52.687Z,4.05
2023-04-30T11:02:21.070Z,2.65
2023-04-30T11:07:36.882Z,2.42
2023-04-30T11:10:04.171Z,3.05
2023-04-30T11:12:31.177Z,2.08
2023-04-30T11:15:06.920Z,4.45
2023-04-30T11:17:34.395Z,2.50
2023-04-30T11:20:03.583Z,3.42
2023-04-30T11:22:35.880Z,1.63
2023-04-30T11:25:11.516Z,2.35
2023-04-30T11:27:42.044Z,3.17
2023-04-30T11:30:15.493Z,4.55
2023-04-30T11:32:47.473Z,2.33
2023-04-30T11:35:18.576Z,1.48
2023-04-30T11:37:48.399Z,5.20
2023-04-30T11:40:16.439Z,3.10
2023-04-30T11:42:46.187Z,2.15
2023-04-30T11:45:17.707Z,2.72
2023-04-30T11:47:58.076Z,2.47
2023-04-30T11:53:05.718Z,2.38
2023-04-30T11:55:33.051Z,3.25
2023-04-30T11:58:00.654Z,2.38
2023-04-30T12:00:31.490Z,2.60
2023-04-30T12:03:10.872Z,3.38
2023-04-30T12:05:50.091Z,1.85
2023-04-30T12:08:21.236Z,3.77
2023-04-30T12:10:48.197Z,2.70
2023-04-30T12:13:16.806Z,1.75
2023-04-30T12:15:56.993Z,1.27
2023-04-30T12:18:23.774Z,3.55
2023-04-30T12:20:51.152Z,5.18
2023-04-30T12:26:03.559Z,4.72
2023-04-30T12:28:30.608Z,1.95
2023-04-30T12:30:57.526Z,3.92
2023-04-30T12:33:24.437Z,3.22
2023-04-30T12:35:53.907Z,1.60
2023-04-30T12:38:24.922Z,2.15
2023-04-30T12:40:52.013Z,4.07
2023-04-30T12:43:19.134Z,3.17
2023-04-30T12:45:53.886Z,2.65
2023-04-30T12:48:24.355Z,1.23
2023-04-30T12:51:01.240Z,1.58
2023-04-30T12:53:29.777Z,1.25
2023-04-30T12:56:17.237Z,2.03
2023-04-30T12:58:47.422Z,2.38
2023-04-30T13:03:44.089Z,1.73
2023-04-30T13:06:11.305Z,1.80
2023-04-30T13:08:49.697Z,1.35
2023-04-30T13:11:26.291Z,2.08
2023-04-30T13:13:55.436Z,1.98
2023-04-30T13:16:24.725Z,1.40
2023-04-30T13:18:52.195Z,2.13
2023-04-30T13:21:19.078Z,2.53
2023-04-30T13:23:52.530Z,2.67
2023-04-30T13:26:23.182Z,0.57
2023-04-30T13:28:50.568Z,1.42
2023-04-30T13:31:17.458Z,1.98
2023-04-30T13:33:44.411Z,2.92
2023-04-30T13:36:11.518Z,2.15
2023-04-30T13:38:39.587Z,2.17
2023-04-30T13:41:07.366Z,3.20
2023-04-30T13:43:34.512Z,1.90
2023-04-30T13:46:03.448Z,1.50
2023-04-30T13:48:30.443Z,2.33
2023-04-30T13:50:58.377Z,2.55
2023-04-30T13:53:25.190Z,3.67
2023-04-30T13:55:52.524Z,2.35
2023-04-30T13:58:19.577Z,3.22
2023-04-30T14:00:46.511Z,1.27
2023-04-30T14:03:14.368Z,1.25
2023-04-30T14:05:41.435Z,1.80
2023-04-30T14:08:08.506Z,1.35
2023-04-30T14:10:35.222Z,2.63
2023-04-30T14:13:02.144Z,2.13
2023-04-30T14:15:32.345Z,2.22
2023-04-30T14:18:00.544Z,2.28
2023-04-30T14:20:27.754Z,2.22
2023-04-30T14:22:54.811Z,2.85
2023-04-30T14:25:21.824Z,3.22
2023-04-30T14:27:49.053Z,2.33
2023-04-30T14:30:16.151Z,1.95
2023-04-30T14:32:43.105Z,4.05
2023-04-30T14:35:10.686Z,1.70
2023-04-30T14:37:37.514Z,1.48
2023-04-30T14:40:07.161Z,3.25
2023-04-30T14:42:34.115Z,9.50
2023-04-30T14:45:03.102Z,3.80
2023-04-30T14:47:29.960Z,2.60
2023-04-30T14:49:58.993Z,3.67
2023-04-30T14:52:25.994Z,4.13
2023-04-30T14:54:52.979Z,1.65
2023-04-30T14:57:20.245Z,2.47
2023-04-30T14:59:47.085Z,3.13
2023-04-30T15:02:15.490Z,1.55
2023-04-30T15:04:46.206Z,1.00
2023-04-30T15:07:14.590Z,2.13
2023-04-30T15:09:54.457Z,2.17
2023-04-30T15:12:22.936Z,3.13
2023-04-30T15:14:51.023Z,1.50
2023-04-30T15:17:28.561Z,2.22
2023-04-30T15:20:11.244Z,4.10
2023-04-30T15:22:45.130Z,1.60
2023-04-30T15:25:13.523Z,1.70
2023-04-30T15:27:54.812Z,5.30
2023-04-30T15:30:21.959Z,2.72
2023-04-30T15:32:51.757Z,8.73
2023-04-30T15:35:18.870Z,6.68
2023-04-30T15:37:54.224Z,3.33
2023-04-30T15:40:21.452Z,2.85
2023-04-30T15:42:48.282Z,3.20
2023-04-30T15:45:19.184Z,1.73
2023-04-30T15:47:56.527Z,2.03
2023-04-30T15:50:29.947Z,6.68
2023-04-30T15:53:03.513Z,1.48
2023-04-30T15:55:32.042Z,1.20
2023-04-30T15:58:00.379Z,1.95
2023-04-30T16:00:33.193Z,2.47
2023-04-30T16:03:00.864Z,2.78
2023-04-30T16:05:28.049Z,0.77
2023-04-30T16:07:57.317Z,2.00
2023-04-30T16:10:24.582Z,1.27
2023-04-30T16:13:07.325Z,1.58
2023-04-30T16:15:44.424Z,4.03
2023-04-30T16:18:13.557Z,1.85
2023-04-30T16:20:44.433Z,1.70
2023-04-30T16:25:44.284Z,0.77
2023-04-30T16:28:13.809Z,2.53
2023-04-30T16:30:41.943Z,0.75
2023-04-30T16:33:08.923Z,0.82
2023-04-30T16:35:35.828Z,3.85
2023-04-30T16:38:02.691Z,1.90
2023-04-30T16:40:29.827Z,3.85
2023-04-30T16:42:59.218Z,1.58
2023-04-30T16:45:34.433Z,3.53
2023-04-30T16:48:04.354Z,2.70
2023-04-30T16:50:31.438Z,4.13
2023-04-30T16:52:58.419Z,2.53
2023-04-30T16:55:28.417Z,4.20
2023-04-30T16:57:55.482Z,4.10
2023-04-30T17:00:27.523Z,4.85
2023-04-30T17:02:55.618Z,1.55
2023-04-30T17:05:24.088Z,2.45
2023-04-30T17:07:51.416Z,2.45
2023-04-30T17:10:22.228Z,1.88
2023-04-30T17:12:51.371Z,3.03
2023-04-30T17:15:22.256Z,5.07
2023-04-30T17:17:56.917Z,2.03
2023-04-30T17:20:25.979Z,2.03
2023-04-30T17:22:53.559Z,2.22
2023-04-30T17:25:26.484Z,1.92
2023-04-30T17:28:00.325Z,2.03
2023-04-30T17:30:29.477Z,1.85
2023-04-30T17:32:58.752Z,1.60
2023-04-30T17:35:28.580Z,4.45
2023-04-30T17:37:57.374Z,1.20
2023-04-30T17:40:24.793Z,2.72
2023-04-30T17:42:52.232Z,1.40
2023-04-30T17:45:27.809Z,1.48
2023-04-30T17:47:57.303Z,2.35
2023-04-30T17:50:27.202Z,3.45
2023-04-30T17:53:02.981Z,4.30
2023-04-30T17:55:29.856Z,4.13
2023-04-30T17:58:00.147Z,2.30
2023-04-30T18:00:27.451Z,1.60
2023-04-30T18:02:56.206Z,3.08
2023-04-30T18:05:23.480Z,2.15
2023-04-30T18:07:51.690Z,2.58
2023-04-30T18:10:21.690Z,2.53
2023-04-30T18:12:50.716Z,1.63
2023-04-30T18:15:21.438Z,2.97
2023-04-30T18:17:48.258Z,4.38
2023-04-30T18:20:15.208Z,3.53
2023-04-30T18:22:43.654Z,1.88
2023-04-30T18:25:13.478Z,4.28
2023-04-30T18:27:43.537Z,1.95
2023-04-30T18:30:15.909Z,2.95
2023-04-30T18:32:44.277Z,3.45
2023-04-30T18:35:11.757Z,4.07
2023-04-30T18:37:39.102Z,5.82
2023-04-30T18:40:07.683Z,4.07
2023-04-30T18:42:34.934Z,4.35
2023-04-30T18:45:06.457Z,4.95
2023-04-30T18:47:34.115Z,4.65
2023-04-30T18:50:01.832Z,4.13
2023-04-30T18:52:32.607Z,4.00
2023-04-30T18:55:02.475Z,5.65
2023-04-30T18:57:29.359Z,3.33
2023-04-30T18:59:56.820Z,6.22
2023-04-30T19:02:24.228Z,2.35
2023-04-30T19:04:52.321Z,5.55
2023-04-30T19:07:19.215Z,3.00
2023-04-30T19:09:48.796Z,3.92
2023-04-30T19:12:15.628Z,2.28
2023-04-30T19:14:43.194Z,4.82
2023-04-30T19:17:10.200Z,4.57
2023-04-30T19:19:38.744Z,3.33
2023-04-30T19:22:05.728Z,3.50
2023-04-30T19:24:32.665Z,4.25
2023-04-30T19:27:04.258Z,2.75
2023-04-30T19:29:32.474Z,5.22
2023-04-30T19:32:00.019Z,2.08
2023-04-30T19:34:27.421Z,5.18
2023-04-30T19:36:55.131Z,4.20
2023-04-30T19:39:21.942Z,4.57
2023-04-30T19:41:49.969Z,3.60
2023-04-30T19:44:18.462Z,7.43
2023-04-30T19:46:47.454Z,4.07
2023-04-30T19:49:14.795Z,2.33
2023-04-30T19:51:41.857Z,3.10
2023-04-30T19:54:16.399Z,7.15
2023-04-30T19:56:46.108Z,5.45
2023-04-30T19:59:13.538Z,4.55
2023-04-30T20:01:41.728Z,4.15
2023-04-30T20:04:08.856Z,2.58
2023-04-30T20:06:36.002Z,4.70
2023-04-30T20:09:03.971Z,5.35
2023-04-30T20:11:32.009Z,3.47
2023-04-30T20:13:59.046Z,5.78
2023-04-30T20:16:26.069Z,3.92
2023-04-30T20:18:52.907Z,2.33
2023-04-30T20:21:21.390Z,7.80
2023-04-30T20:23:52.405Z,2.80
2023-04-30T20:26:21.330Z,2.70
2023-04-30T20:28:48.334Z,1.65
2023-04-30T20:31:16.436Z,6.32
2023-04-30T20:33:43.486Z,4.28
2023-04-30T20:36:11.970Z,3.08
2023-04-30T20:38:40.234Z,3.78
2023-04-30T20:41:07.076Z,3.90
2023-04-30T20:43:34.052Z,6.65
2023-04-30T20:46:01.085Z,5.85
2023-04-30T20:48:29.215Z,5.78
2023-04-30T20:50:56.406Z,2.15
2023-04-30T20:53:23.465Z,3.25
2023-04-30T20:55:51.380Z,8.30
2023-04-30T20:58:18.271Z,6.25
2023-04-30T21:00:47.357Z,3.63
2023-04-30T21:03:16.733Z,5.28
2023-04-30T21:05:47.784Z,3.38
2023-04-30T21:08:14.719Z,3.75
2023-04-30T21:10:43.147Z,4.53
2023-04-30T21:13:11.414Z,5.57
2023-04-30T21:15:39.998Z,3.53
2023-04-30T21:18:07.279Z,4.43
2023-04-30T21:20:35.466Z,4.53
2023-04-30T21:23:02.473Z,8.40
2023-04-30T21:25:29.531Z,1.88
2023-04-30T21:27:56.640Z,4.03
2023-04-30T21:30:25.791Z,2.90
2023-04-30T21:32:58.987Z,5.65
2023-04-30T21:35:27.579Z,3.13
2023-04-30T21:37:54.631Z,4.07
2023-04-30T21:40:21.633Z,3.30
2023-04-30T21:42:48.552Z,2.65
2023-04-30T21:45:16.318Z,3.80
2023-04-30T21:47:45.090Z,2.28
2023-04-30T21:50:12.353Z,3.33
2023-04-30T21:52:39.249Z,6.95
2023-04-30T21:55:06.906Z,5.60
2023-04-30T21:57:33.932Z,3.55
2023-04-30T22:00:00.952Z,5.45
2023-04-30T22:02:28.691Z,5.80
2023-04-30T22:04:57.704Z,7.45
2023-04-30T22:07:24.650Z,6.85
2023-04-30T22:09:54.264Z,3.97
2023-04-30T22:12:26.153Z,3.17
2023-04-30T22:14:55.292Z,5.00
2023-04-30T22:17:22.186Z,8.02
2023-04-30T22:19:49.040Z,3.20
2023-04-30T22:22:16.851Z,4.63
2023-04-30T22:24:46.819Z,12.20
2023-04-30T22:27:13.825Z,5.20
2023-04-30T22:29:41.192Z,3.45
2023-04-30T22:32:09.374Z,7.75
2023-04-30T22:34:39.808Z,4.32
2023-04-30T22:37:07.911Z,7.35
2023-04-30T22:39:34.689Z,4.22
2023-04-30T22:42:01.686Z,4.30
2023-04-30T22:44:30.073Z,7.40
2023-04-30T22:46:58.264Z,4.80
2023-04-30T22:49:31.516Z,5.65
2023-04-30T22:51:59.691Z,4.65
2023-04-30T22:54:26.790Z,4.60
2023-04-30T22:56:53.626Z,4.60
2023-04-30T22:59:20.669Z,6.85
2023-04-30T23:01:47.615Z,7.00
2023-04-30T23:04:14.643Z,4.80
2023-04-30T23:06:43.057Z,5.85
2023-04-30T23:09:10.308Z,5.72
2023-04-30T23:11:37.618Z,4.47
2023-04-30T23:14:04.748Z,3.47
2023-04-30T23:16:31.930Z,6.55
2023-04-30T23:18:59.097Z,3.55
2023-04-30T23:21:26.893Z,6.68
2023-04-30T23:23:54.298Z,7.90
2023-04-30T23:26:21.679Z,4.80
2023-04-30T23:28:48.433Z,3.55
2023-04-30T23:31:15.415Z,3.47
2023-04-30T23:33:42.337Z,5.57
2023-04-30T23:36:09.279Z,4.47
2023-04-30T23:38:36.171Z,7.35
2023-04-30T23:41:03.351Z,6.35
2023-04-30T23:43:31.586Z,4.57
2023-04-30T23:46:00.046Z,5.40
2023-04-30T23:48:26.940Z,3.63
2023-04-30T23:51:08.476Z,4.47
2023-04-30T23:53:35.635Z,4.00
2023-04-30T23:56:04.203Z,4.18
2023-04-30T23:58:31.086Z,4.45
